createdAt,value
2022-10-22T00:01:47.569Z,100525.55
2022-10-22T00:04:15.680Z,100528.34
2022-10-22T00:06:45.295Z,100527.27
2022-10-22T00:09:14.134Z,100520.56
2022-10-22T00:11:42.885Z,100512.05
2022-10-22T00:14:12.131Z,100501.50
2022-10-22T00:16:40.155Z,100489.66
2022-10-22T00:19:09.432Z,100486.34
2022-10-22T00:21:37.488Z,100490.39
2022-10-22T00:24:05.653Z,100490.20
2022-10-22T00:26:34.262Z,100487.91
2022-10-22T00:29:11.206Z,100487.77
2022-10-22T00:31:38.923Z,100501.80
2022-10-22T00:34:06.608Z,100505.03
2022-10-22T00:36:34.348Z,100504.16
2022-10-22T00:39:02.114Z,100505.48
2022-10-22T00:41:29.926Z,100506.99
2022-10-22T00:44:03.576Z,100501.92
2022-10-22T00:46:31.541Z,100503.61
2022-10-22T00:49:02.450Z,100499.05
2022-10-22T00:51:33.990Z,100499.14
2022-10-22T00:54:07.064Z,100492.53
2022-10-22T00:56:34.840Z,100485.11
2022-10-22T00:59:03.879Z,100489.19
2022-10-22T01:01:32.305Z,100477.58
2022-10-22T01:04:00.256Z,100465.13
2022-10-22T01:06:33.500Z,100458.17
2022-10-22T01:09:07.281Z,100461.54
2022-10-22T01:11:43.824Z,100456.70
2022-10-22T01:14:32.745Z,100460.75
2022-10-22T01:17:22.521Z,100460.73
2022-10-22T01:20:08.767Z,100465.39
2022-10-22T01:22:36.506Z,100459.17
2022-10-22T01:25:19.861Z,100456.84
2022-10-22T01:28:06.333Z,100460.18
2022-10-22T01:30:37.588Z,100461.67
2022-10-22T01:33:09.313Z,100456.71
2022-10-22T01:35:40.050Z,100460.03
2022-10-22T01:38:12.446Z,100461.66
2022-10-22T01:40:41.729Z,100460.42
2022-10-22T01:43:11.647Z,100454.42
2022-10-22T01:45:47.126Z,100450.93
2022-10-22T01:48:43.375Z,100453.75
2022-10-22T01:51:27.936Z,100459.79
2022-10-22T01:54:01.815Z,100473.83
2022-10-22T01:57:08.197Z,100477.02
2022-10-22T01:59:45.893Z,100484.85
2022-10-22T02:02:23.876Z,100488.35
2022-10-22T02:05:03.112Z,100476.77
2022-10-22T02:07:44.754Z,100467.54
2022-10-22T02:10:14.133Z,100459.30
2022-10-22T02:12:45.989Z,100446.20
2022-10-22T02:15:16.068Z,100439.92
2022-10-22T02:17:46.665Z,100438.58
2022-10-22T02:20:28.433Z,100439.66
2022-10-22T02:22:57.330Z,100438.91
2022-10-22T02:25:28.663Z,100440.33
2022-10-22T02:28:19.750Z,100450.02
2022-10-22T02:30:54.910Z,100452.48
2022-10-22T02:33:28.531Z,100448.61
2022-10-22T02:35:59.091Z,100441.80
2022-10-22T02:38:28.386Z,100446.70
2022-10-22T02:40:56.467Z,100459.30
2022-10-22T02:43:25.494Z,100462.33
2022-10-22T02:45:53.264Z,100472.05
2022-10-22T02:50:53.656Z,100480.50
2022-10-22T02:53:22.652Z,100483.92
2022-10-22T02:55:50.322Z,100479.04
2022-10-22T02:58:18.147Z,100471.03
2022-10-22T03:00:45.902Z,100465.10
2022-10-22T03:03:13.600Z,100462.08
2022-10-22T03:05:41.503Z,100462.83
2022-10-22T03:08:09.262Z,100459.77
2022-10-22T03:10:37.012Z,100461.56
2022-10-22T03:13:05.052Z,100460.98
2022-10-22T03:15:33.004Z,100465.56
2022-10-22T03:18:01.128Z,100471.98
2022-10-22T03:20:28.886Z,100474.27
2022-10-22T03:22:57.563Z,100477.31
2022-10-22T03:25:26.968Z,100476.80
2022-10-22T03:27:56.941Z,100476.65
2022-10-22T03:30:24.718Z,100483.19
2022-10-22T03:32:55.251Z,100487.86
2022-10-22T03:35:23.339Z,100485.13
2022-10-22T03:37:51.392Z,100488.34
2022-10-22T03:40:19.861Z,100486.42
2022-10-22T03:42:47.855Z,100491.46
2022-10-22T03:45:15.666Z,100488.91
2022-10-22T03:47:43.584Z,100486.86
2022-10-22T03:50:11.568Z,100485.09
2022-10-22T03:52:40.339Z,100483.55
2022-10-22T03:55:10.006Z,100484.98
2022-10-22T03:57:38.469Z,100488.31
2022-10-22T04:00:07.946Z,100487.32
2022-10-22T04:02:35.823Z,100479.46
2022-10-22T04:05:03.744Z,100480.48
2022-10-22T04:07:31.753Z,100485.20
2022-10-22T04:09:59.670Z,100481.47
2022-10-22T04:12:28.133Z,100480.21
2022-10-22T04:14:56.135Z,100469.77
2022-10-22T04:17:23.871Z,100464.70
2022-10-22T04:19:51.577Z,100467.86
2022-10-22T04:22:19.303Z,100466.66
2022-10-22T04:24:47.041Z,100463.95
2022-10-22T04:27:14.994Z,100457.16
2022-10-22T04:29:43.228Z,100455.93
2022-10-22T04:32:11.129Z,100458.92
2022-10-22T04:34:39.376Z,100459.59
2022-10-22T04:37:07.770Z,100459.53
2022-10-22T04:39:36.233Z,100473.94
2022-10-22T04:42:06.354Z,100482.14
2022-10-22T04:44:35.383Z,100480.57
2022-10-22T04:47:04.561Z,100481.83
2022-10-22T04:49:34.289Z,100484.84
2022-10-22T04:52:02.171Z,100490.60
2022-10-22T04:54:32.960Z,100494.55
2022-10-22T04:57:01.979Z,100499.41
2022-10-22T04:59:29.831Z,100492.61
2022-10-22T05:01:59.458Z,100485.85
2022-10-22T05:04:27.861Z,100478.88
2022-10-22T05:06:55.796Z,100478.77
2022-10-22T05:09:23.605Z,100478.80
2022-10-22T05:11:52.972Z,100481.80
2022-10-22T05:14:25.970Z,100488.43
2022-10-22T05:16:54.488Z,100489.98
2022-10-22T05:19:25.375Z,100496.16
2022-10-22T05:21:55.282Z,100507.41
2022-10-22T05:24:23.411Z,100510.45
2022-10-22T05:26:56.533Z,100513.61
2022-10-22T05:29:25.902Z,100520.13
2022-10-22T05:31:54.101Z,100519.33
2022-10-22T05:34:22.277Z,100514.52
2022-10-22T05:36:51.205Z,100517.02
2022-10-22T05:39:20.072Z,100512.08
2022-10-22T05:41:48.534Z,100517.52
2022-10-22T05:44:16.353Z,100520.86
2022-10-22T05:46:44.179Z,100515.02
2022-10-22T05:49:14.563Z,100514.70
2022-10-22T05:51:42.627Z,100517.31
2022-10-22T05:54:17.465Z,100521.60
2022-10-22T05:56:46.261Z,100521.36
2022-10-22T05:59:14.638Z,100514.79
2022-10-22T06:01:44.905Z,100515.00
2022-10-22T06:04:14.154Z,100516.06
2022-10-22T06:06:48.932Z,100515.86
2022-10-22T06:09:29.559Z,100525.59
2022-10-22T06:12:00.461Z,100526.80
2022-10-22T06:14:29.868Z,100530.04
2022-10-22T06:17:00.188Z,100528.34
2022-10-22T06:19:30.071Z,100528.27
2022-10-22T06:21:58.931Z,100535.29
2022-10-22T06:24:27.079Z,100547.23
2022-10-22T06:26:55.164Z,100554.98
2022-10-22T06:29:23.167Z,100556.73
2022-10-22T06:31:52.251Z,100558.27
2022-10-22T06:34:21.797Z,100563.55
2022-10-22T06:36:51.923Z,100564.24
2022-10-22T06:39:21.745Z,100563.52
2022-10-22T06:41:50.768Z,100564.54
2022-10-22T06:44:21.142Z,100565.73
2022-10-22T06:46:53.162Z,100563.34
2022-10-22T06:49:21.631Z,100562.51
2022-10-22T06:51:53.902Z,100562.95
2022-10-22T06:54:24.014Z,100567.59
2022-10-22T06:56:53.069Z,100575.26
2022-10-22T06:59:22.324Z,100578.61
2022-10-22T07:01:53.645Z,100580.39
2022-10-22T07:04:22.653Z,100581.91
2022-10-22T07:06:51.648Z,100587.71
2022-10-22T07:09:20.289Z,100590.77
2022-10-22T07:11:48.648Z,100594.48
2022-10-22T07:14:16.922Z,100600.63
2022-10-22T07:16:47.084Z,100599.86
2022-10-22T07:19:16.097Z,100599.75
2022-10-22T07:21:45.100Z,100602.35
2022-10-22T07:24:13.011Z,100605.60
2022-10-22T07:26:41.021Z,100605.14
2022-10-22T07:29:10.207Z,100609.23
2022-10-22T07:31:38.963Z,100610.84
2022-10-22T07:34:07.646Z,100604.91
2022-10-22T07:36:35.893Z,100603.98
2022-10-22T07:39:04.552Z,100600.76
2022-10-22T07:41:32.758Z,100600.27
2022-10-22T07:44:00.871Z,100600.00
2022-10-22T07:46:29.563Z,100594.34
2022-10-22T07:48:57.337Z,100598.40
2022-10-22T07:51:26.002Z,100603.27
2022-10-22T07:53:54.369Z,100599.77
2022-10-22T07:56:23.481Z,100590.14
2022-10-22T07:58:51.635Z,100590.64
2022-10-22T08:01:19.742Z,100589.92
2022-10-22T08:03:48.941Z,100596.27
2022-10-22T08:06:17.893Z,100601.88
2022-10-22T08:08:46.675Z,100609.44
2022-10-22T08:11:15.976Z,100607.31
2022-10-22T08:13:45.906Z,100598.68
2022-10-22T08:16:15.753Z,100600.04
2022-10-22T08:18:44.746Z,100607.84
2022-10-22T08:21:13.852Z,100603.25
2022-10-22T08:23:43.413Z,100607.44
2022-10-22T08:26:11.812Z,100613.08
2022-10-22T08:28:40.086Z,100611.61
2022-10-22T08:31:10.420Z,100612.77
2022-10-22T08:33:39.158Z,100615.70
2022-10-22T08:36:08.247Z,100616.05
2022-10-22T08:38:36.529Z,100612.44
2022-10-22T08:41:20.348Z,100611.05
2022-10-22T08:43:54.849Z,100612.41
2022-10-22T08:46:45.126Z,100616.91
2022-10-22T08:49:21.145Z,100620.80
2022-10-22T08:51:51.394Z,100614.68
2022-10-22T08:54:32.474Z,100607.68
2022-10-22T08:57:09.858Z,100609.88
2022-10-22T08:59:53.181Z,100615.70
2022-10-22T09:02:45.473Z,100619.15
2022-10-22T09:05:22.152Z,100628.48
2022-10-22T09:07:50.780Z,100629.73
2022-10-22T09:10:24.654Z,100619.76
2022-10-22T09:12:52.691Z,100620.06
2022-10-22T09:15:21.314Z,100615.73
2022-10-22T09:17:52.189Z,100616.18
2022-10-22T09:20:36.270Z,100616.79
2022-10-22T09:23:19.701Z,100620.42
2022-10-22T09:25:49.299Z,100613.36
2022-10-22T09:28:17.313Z,100613.48
2022-10-22T09:30:45.797Z,100621.39
2022-10-22T09:33:24.843Z,100626.20
2022-10-22T09:35:57.309Z,100633.29
2022-10-22T09:38:31.105Z,100633.81
2022-10-22T09:41:03.966Z,100630.98
2022-10-22T09:43:34.326Z,100638.55
2022-10-22T09:46:06.831Z,100650.33
2022-10-22T09:48:41.647Z,100658.60
2022-10-22T09:51:37.811Z,100661.49
2022-10-22T09:54:16.643Z,100665.15
2022-10-22T09:56:51.567Z,100672.55
2022-10-22T09:59:27.413Z,100669.36
2022-10-22T10:02:13.655Z,100676.00
2022-10-22T10:04:55.423Z,100684.11
2022-10-22T10:07:30.302Z,100685.75
2022-10-22T10:09:58.828Z,100678.67
2022-10-22T10:12:56.235Z,100677.84
2022-10-22T10:15:55.091Z,100683.72
2022-10-22T10:18:37.028Z,100685.71
2022-10-22T10:21:47.423Z,100689.10
2022-10-22T10:24:54.177Z,100688.46
2022-10-22T10:27:46.658Z,100680.59
2022-10-22T10:30:21.653Z,100679.36
2022-10-22T10:33:18.586Z,100681.87
2022-10-22T10:36:02.643Z,100679.89
2022-10-22T10:38:57.328Z,100673.58
2022-10-22T10:41:39.844Z,100673.17
2022-10-22T10:44:27.433Z,100672.10
2022-10-22T10:47:11.960Z,100672.90
2022-10-22T10:49:43.469Z,100665.44
2022-10-22T10:52:30.619Z,100662.13
2022-10-22T10:55:21.926Z,100657.83
2022-10-22T10:58:06.650Z,100655.13
2022-10-22T11:00:45.291Z,100657.20
2022-10-22T11:03:23.378Z,100654.98
2022-10-22T11:06:04.977Z,100657.35
2022-10-22T11:08:39.083Z,100658.20
2022-10-22T11:11:21.648Z,100658.26
2022-10-22T11:13:56.729Z,100661.21
2022-10-22T11:16:45.467Z,100662.91
2022-10-22T11:19:23.006Z,100662.77
2022-10-22T11:22:26.623Z,100657.73
2022-10-22T11:25:03.320Z,100658.39
2022-10-22T11:27:53.748Z,100656.22
2022-10-22T11:30:24.195Z,100654.25
2022-10-22T11:32:55.381Z,100650.90
2022-10-22T11:35:47.062Z,100653.30
2022-10-22T11:38:18.798Z,100662.52
2022-10-22T11:40:54.969Z,100662.23
2022-10-22T11:43:28.347Z,100664.41
2022-10-22T11:46:19.915Z,100661.21
2022-10-22T11:49:19.713Z,100655.07
2022-10-22T11:51:48.606Z,100655.90
2022-10-22T11:54:30.718Z,100656.05
2022-10-22T11:57:29.837Z,100658.92
2022-10-22T12:00:01.524Z,100658.20
2022-10-22T12:02:45.306Z,100653.27
2022-10-22T12:05:22.988Z,100656.68
2022-10-22T12:08:00.470Z,100652.95
2022-10-22T12:10:49.773Z,100650.23
2022-10-22T12:13:28.008Z,100651.69
2022-10-22T12:16:00.270Z,100653.02
2022-10-22T12:18:46.715Z,100652.69
2022-10-22T12:21:22.127Z,100648.20
2022-10-22T12:24:00.405Z,100647.16
2022-10-22T12:26:40.421Z,100645.77
2022-10-22T12:29:22.065Z,100643.70
2022-10-22T12:31:58.989Z,100648.64
2022-10-22T12:34:36.297Z,100651.11
2022-10-22T12:37:15.406Z,100647.73
2022-10-22T12:39:54.534Z,100638.14
2022-10-22T12:42:31.606Z,100640.13
2022-10-22T12:45:08.086Z,100642.64
2022-10-22T12:47:43.084Z,100646.20
2022-10-22T12:50:25.863Z,100642.46
2022-10-22T12:53:01.597Z,100644.77
2022-10-22T12:55:42.004Z,100640.83
2022-10-22T12:58:27.281Z,100642.55
2022-10-22T13:01:06.602Z,100640.11
2022-10-22T13:03:47.479Z,100643.02
2022-10-22T13:06:24.001Z,100643.77
2022-10-22T13:09:05.307Z,100640.44
2022-10-22T13:12:02.856Z,100643.00
2022-10-22T13:14:45.007Z,100645.09
2022-10-22T13:17:29.445Z,100646.00
2022-10-22T13:20:27.817Z,100645.12
2022-10-22T13:23:09.128Z,100649.53
2022-10-22T13:25:47.343Z,100646.31
2022-10-22T13:28:27.177Z,100646.11
2022-10-22T13:31:12.734Z,100648.71
2022-10-22T13:33:54.335Z,100650.71
2022-10-22T13:36:29.772Z,100652.41
2022-10-22T13:39:11.680Z,100653.71
2022-10-22T13:41:53.131Z,100652.11
2022-10-22T13:44:36.060Z,100656.02
2022-10-22T13:47:40.239Z,100660.84
2022-10-22T13:50:27.166Z,100659.81
2022-10-22T13:53:14.516Z,100663.76
2022-10-22T13:55:55.657Z,100663.48
2022-10-22T13:58:38.096Z,100667.50
2022-10-22T14:01:26.428Z,100670.98
2022-10-22T14:04:06.802Z,100670.76
2022-10-22T14:06:45.163Z,100671.04
2022-10-22T14:09:26.284Z,100674.29
2022-10-22T14:12:07.289Z,100670.31
2022-10-22T14:14:43.414Z,100674.84
2022-10-22T14:17:22.852Z,100679.58
2022-10-22T14:19:58.879Z,100680.97
2022-10-22T14:22:35.299Z,100682.81
2022-10-22T14:25:18.152Z,100678.27
2022-10-22T14:27:54.610Z,100673.50
2022-10-22T14:30:42.809Z,100674.24
2022-10-22T14:33:34.747Z,100680.28
2022-10-22T14:36:19.870Z,100677.69
2022-10-22T14:38:54.073Z,100681.28
2022-10-22T14:41:43.538Z,100685.05
2022-10-22T14:44:27.981Z,100686.96
2022-10-22T14:47:09.354Z,100681.48
2022-10-22T14:49:45.706Z,100686.15
2022-10-22T14:52:23.023Z,100688.99
2022-10-22T14:55:07.218Z,100692.09
2022-10-22T14:57:50.093Z,100694.77
2022-10-22T15:00:28.367Z,100692.97
2022-10-22T15:03:06.552Z,100697.05
2022-10-22T15:05:48.977Z,100697.24
2022-10-22T15:08:28.733Z,100700.69
2022-10-22T15:11:05.759Z,100704.67
2022-10-22T15:13:43.693Z,100705.66
2022-10-22T15:16:20.564Z,100709.93
2022-10-22T15:18:58.221Z,100712.04
2022-10-22T15:21:35.253Z,100709.73
2022-10-22T15:24:14.537Z,100709.00
2022-10-22T15:26:50.390Z,100713.22
2022-10-22T15:29:26.418Z,100715.45
2022-10-22T15:32:03.039Z,100712.94
2022-10-22T15:34:37.308Z,100720.79
2022-10-22T15:37:17.582Z,100720.99
2022-10-22T15:39:53.731Z,100725.63
2022-10-22T15:44:05.660Z,100727.97
2022-10-22T15:46:42.573Z,100729.58
2022-10-22T15:49:20.792Z,100735.60
2022-10-22T15:52:00.866Z,100738.66
2022-10-22T15:54:43.286Z,100743.17
2022-10-22T15:57:24.568Z,100746.92
2022-10-22T16:00:10.553Z,100750.16
2022-10-22T16:02:52.916Z,100753.36
2022-10-22T16:05:31.481Z,100754.59
2022-10-22T16:08:15.850Z,100759.30
2022-10-22T16:10:57.849Z,100760.77
2022-10-22T16:13:40.348Z,100762.08
2022-10-22T16:16:20.758Z,100762.92
2022-10-22T16:19:02.779Z,100755.19
2022-10-22T16:21:40.221Z,100767.29
2022-10-22T16:24:20.159Z,100768.39
2022-10-22T16:27:05.227Z,100769.59
2022-10-22T16:29:54.270Z,100766.80
2022-10-22T16:32:43.868Z,100764.98
2022-10-22T16:35:25.184Z,100766.84
2022-10-22T16:38:04.143Z,100772.18
2022-10-22T16:40:49.496Z,100773.79
2022-10-22T16:43:39.083Z,100778.05
2022-10-22T16:46:29.565Z,100787.30
2022-10-22T16:49:24.797Z,100790.42
2022-10-22T16:52:21.016Z,100790.26
2022-10-22T16:55:09.632Z,100791.96
2022-10-22T16:57:52.131Z,100797.52
2022-10-22T17:00:32.793Z,100801.14
2022-10-22T17:03:19.580Z,100802.65
2022-10-22T17:05:58.531Z,100800.71
2022-10-22T17:08:44.512Z,100805.89
2022-10-22T17:11:26.445Z,100807.40
2022-10-22T17:14:06.943Z,100815.34
2022-10-22T17:16:57.157Z,100817.15
2022-10-22T17:19:41.744Z,100818.73
2022-10-22T17:22:24.879Z,100823.06
2022-10-22T17:25:28.726Z,100829.73
2022-10-22T17:28:13.234Z,100829.61
2022-10-22T17:31:00.951Z,100828.56
2022-10-22T17:33:40.375Z,100832.23
2022-10-22T17:36:18.558Z,100828.86
2022-10-22T17:39:04.171Z,100834.20
2022-10-22T17:41:48.992Z,100833.30
2022-10-22T17:44:36.620Z,100833.29
2022-10-22T17:47:19.428Z,100840.89
2022-10-22T17:49:58.181Z,100843.68
2022-10-22T17:52:35.048Z,100846.13
2022-10-22T17:55:14.717Z,100852.98
2022-10-22T17:57:57.152Z,100850.98
2022-10-22T18:00:38.636Z,100855.79
2022-10-22T18:03:22.142Z,100852.94
2022-10-22T18:06:09.852Z,100853.20
2022-10-22T18:08:50.985Z,100854.62
2022-10-22T18:11:29.713Z,100858.62
2022-10-22T18:14:08.322Z,100861.00
2022-10-22T18:16:48.881Z,100864.48
2022-10-22T18:19:56.644Z,100863.81
2022-10-22T18:22:52.048Z,100868.61
2022-10-22T18:25:33.289Z,100864.58
2022-10-22T18:28:24.760Z,100871.87
2022-10-22T18:31:02.307Z,100871.86
2022-10-22T18:33:46.275Z,100869.65
2022-10-22T18:36:30.590Z,100869.48
2022-10-22T18:39:22.437Z,100871.40
2022-10-22T18:46:49.396Z,100872.13
2022-10-22T18:49:36.517Z,100877.13
2022-10-22T18:52:18.083Z,100879.16
2022-10-22T18:54:56.101Z,100884.13
2022-10-22T18:57:36.665Z,100887.27
2022-10-22T19:00:22.257Z,100891.23
2022-10-22T19:03:01.270Z,100893.08
2022-10-22T19:05:42.656Z,100899.64
2022-10-22T19:08:25.197Z,100897.66
2022-10-22T19:11:05.262Z,100898.52
2022-10-22T19:13:49.255Z,100903.41
2022-10-22T19:16:30.679Z,100897.35
2022-10-22T19:19:09.613Z,100901.81
2022-10-22T19:21:47.187Z,100900.16
2022-10-22T19:24:27.333Z,100902.59
2022-10-22T19:27:08.308Z,100905.53
2022-10-22T19:29:46.707Z,100912.05
2022-10-22T19:32:31.213Z,100910.35
2022-10-22T19:35:25.661Z,100919.73
2022-10-22T19:42:16.377Z,100939.34
2022-10-22T19:45:04.732Z,100941.81
2022-10-22T19:47:42.019Z,100941.89
2022-10-22T19:50:23.408Z,100943.41
2022-10-22T19:56:34.402Z,100951.17
2022-10-22T19:59:10.766Z,100955.45
2022-10-22T20:01:52.139Z,100960.47
2022-10-22T20:04:33.356Z,100960.45
2022-10-22T20:07:08.251Z,100962.45
2022-10-22T20:09:54.950Z,100966.70
2022-10-22T20:12:29.497Z,100967.81
2022-10-22T20:15:06.165Z,100970.27
2022-10-22T20:17:46.530Z,100969.70
2022-10-22T20:20:26.339Z,100970.77
2022-10-22T20:23:03.865Z,100974.09
2022-10-22T20:25:39.892Z,100973.78
2022-10-22T20:28:15.061Z,100967.25
2022-10-22T20:30:52.653Z,100971.69
2022-10-22T20:33:30.832Z,100969.61
2022-10-22T20:36:15.138Z,100971.30
2022-10-22T20:38:54.348Z,100972.69
2022-10-22T20:41:33.647Z,100974.23
2022-10-22T20:44:08.929Z,100974.45
2022-10-22T20:46:43.189Z,100972.06
2022-10-22T20:49:24.117Z,100974.29
2022-10-22T20:52:04.474Z,100974.30
2022-10-22T20:54:46.691Z,100974.70
2022-10-22T20:57:27.971Z,100975.27
2022-10-22T21:00:12.320Z,100977.94
2022-10-22T21:02:51.757Z,100983.66
2022-10-22T21:05:29.899Z,100982.33
2022-10-22T21:08:10.858Z,100988.63
2022-10-22T21:10:47.610Z,100990.48
2022-10-22T21:13:25.512Z,100990.37
2022-10-22T21:16:15.019Z,100989.23
2022-10-22T21:18:53.222Z,100995.52
2022-10-22T21:21:29.355Z,100996.20
2022-10-22T21:24:07.573Z,100998.16
2022-10-22T21:26:50.984Z,100995.61
2022-10-22T21:29:33.212Z,100991.05
2022-10-22T21:32:13.187Z,100993.54
2022-10-22T21:34:48.089Z,100989.02
2022-10-22T21:37:27.827Z,100994.48
2022-10-22T21:40:07.274Z,100997.02
2022-10-22T21:42:51.770Z,100996.03
2022-10-22T21:45:31.055Z,100996.60
2022-10-22T21:48:12.993Z,101002.66
2022-10-22T21:50:55.151Z,101003.88
2022-10-22T21:53:30.342Z,101003.45
2022-10-22T21:56:07.589Z,101000.66
2022-10-22T21:58:49.775Z,101002.81
2022-10-22T22:01:27.797Z,101004.90
2022-10-22T22:04:05.277Z,101006.41
2022-10-22T22:06:46.580Z,101005.75
2022-10-22T22:09:30.914Z,101008.52
2022-10-22T22:12:08.130Z,101015.33
2022-10-22T22:14:51.633Z,101015.70
2022-10-22T22:17:32.910Z,101014.83
2022-10-22T22:20:20.956Z,101015.15
2022-10-22T22:23:04.048Z,101016.81
2022-10-22T22:25:40.446Z,101016.58
2022-10-22T22:28:19.877Z,101019.38
2022-10-22T22:31:00.241Z,101022.79
2022-10-22T22:33:46.460Z,101024.77
2022-10-22T22:36:26.179Z,101025.88
2022-10-22T22:39:05.883Z,101026.36
2022-10-22T22:41:44.124Z,101026.38
2022-10-22T22:44:23.880Z,101030.13
2022-10-22T22:46:58.421Z,101029.80
2022-10-22T22:49:39.680Z,101026.44
2022-10-22T22:52:15.768Z,101029.15
2022-10-22T22:54:48.855Z,101027.26
2022-10-22T22:57:27.248Z,101029.48
2022-10-22T23:00:02.688Z,101025.06
2022-10-22T23:02:45.856Z,101029.65
2022-10-22T23:05:24.864Z,101033.02
2022-10-22T23:08:02.239Z,101035.38
2022-10-22T23:10:38.293Z,101040.73
2022-10-22T23:13:14.655Z,101040.54
2022-10-22T23:15:49.795Z,101040.73
2022-10-22T23:18:24.930Z,101046.04
2022-10-22T23:21:07.133Z,101044.91
2022-10-22T23:23:50.598Z,101047.30
2022-10-22T23:26:39.834Z,101043.44
2022-10-22T23:29:20.209Z,101039.10
2022-10-22T23:32:03.319Z,101039.64
2022-10-22T23:34:38.447Z,101040.84
2022-10-22T23:37:18.812Z,101042.64
2022-10-22T23:40:00.411Z,101046.08
2022-10-22T23:42:36.152Z,101039.23
2022-10-22T23:45:14.363Z,101040.39
2022-10-22T23:47:51.650Z,101039.38
2022-10-22T23:50:28.945Z,101046.16
2022-10-22T23:53:04.984Z,101041.33
2022-10-22T23:55:45.666Z,101036.70
2022-10-22T23:58:26.949Z,101037.17
